M\v Black Rhino — V7TR7 — position and weather

sailwx.info

Track history (hours):
 
Tides and Currents Weather Stations Pressure Air Temp Water Temp Dewpoint Dewpoint Depression Visibility Wind Speed Wind Dir Waves Ship Positions

M\v Black Rhino

Last reported at 2017-Dec-16 04:50 UTC. Time now 2017-Dec-18 16:55 UTC.
Position S 29°02' E 032°17'.

Length 101 m; draft 5 m.

Type: Cargo ship. MMSI: 538090408.

Date/timePositionNaut miles runAvg speedWind from/ knotsBaromVisibWave heightAir tempDewpointWater temp
2017-Dec-16 04:50S 29°02' E 032°17'19 9.7
2017-Dec-16 02:53S 29°14' E 032°00'4 9.8
2017-Dec-16 02:29S 29°16' E 031°57'511.1
2017-Dec-16 02:00S 29°19' E 031°52'611.5
2017-Dec-16 01:30S 29°23' E 031°47'611.8
2017-Dec-16 01:00S 29°27' E 031°41'612.0
2017-Dec-16 00:30S 29°31' E 031°36'612.2
2017-Dec-16 00:00S 29°35' E 031°31'612.2
2017-Dec-15 23:30S 29°39' E 031°26'612.5
2017-Dec-15 23:00S 29°43' E 031°21'612.7
2017-Dec-15 22:30S 29°47' E 031°15'613.0
2017-Dec-15 22:00S 29°50' E 031°08'510.1
2017-Dec-15 21:30S 29°53' E 031°03'1 1.4
2017-Dec-15 21:00S 29°53' E 031°02'0 0.6
2017-Dec-15 20:30S 29°52' E 031°02'0 0.0
2017-Dec-15 20:00S 29°52' E 031°02'0 0.0
2017-Dec-15 19:30S 29°52' E 031°02'0 0.0
2017-Dec-15 18:57S 29°52' E 031°02'0 0.0
2017-Dec-15 18:30S 29°52' E 031°02'0 0.0
2017-Dec-15 18:00S 29°52' E 031°02'0 0.0
2017-Dec-15 17:30S 29°52' E 031°02'0 0.0
2017-Dec-15 17:00S 29°52' E 031°02'0 0.0
2017-Dec-15 16:30S 29°52' E 031°02'0 0.0
2017-Dec-15 16:00S 29°52' E 031°02'0 0.0
2017-Dec-15 15:30S 29°52' E 031°02'0 0.0
2017-Dec-15 15:00S 29°52' E 031°02'0 0.0
2017-Dec-15 14:30S 29°52' E 031°02'0 0.0
2017-Dec-15 14:00S 29°52' E 031°02'0 0.0
2017-Dec-15 13:30S 29°52' E 031°02'0 0.0
2017-Dec-15 13:00S 29°52' E 031°02'0 0.0
2017-Dec-15 12:30S 29°52' E 031°02'0 0.0
2017-Dec-15 12:00S 29°52' E 031°02'0 0.0
2017-Dec-15 11:30S 29°52' E 031°02'0 0.0
2017-Dec-15 10:57S 29°52' E 031°02'0 0.0
2017-Dec-15 10:30S 29°52' E 031°02'0 0.0
2017-Dec-15 10:00S 29°52' E 031°02'0 0.0
2017-Dec-15 09:30S 29°52' E 031°02'0 0.0
2017-Dec-15 09:00S 29°52' E 031°02'0 0.0
2017-Dec-15 08:30S 29°52' E 031°02'0 0.0
2017-Dec-15 08:00S 29°52' E 031°02'0 0.0
2017-Dec-15 07:30S 29°52' E 031°02'0 0.0
2017-Dec-15 07:00S 29°52' E 031°02'0 0.0
2017-Dec-15 06:30S 29°52' E 031°02'0 0.0
2017-Dec-15 06:00S 29°52' E 031°02'0 0.0
2017-Dec-15 05:30S 29°52' E 031°02'0 0.0
2017-Dec-15 05:00S 29°52' E 031°02'0 0.0
2017-Dec-15 04:30S 29°52' E 031°02'0 0.0
2017-Dec-15 04:00S 29°52' E 031°02'0 0.0
2017-Dec-15 02:30S 29°52' E 031°02'0 0.0
2017-Dec-15 01:00S 29°52' E 031°02'0 0.0
2017-Dec-15 00:30S 29°52' E 031°02'0 0.1
2017-Dec-14 18:31S 29°53' E 031°03'4 8.4
2017-Dec-14 18:00S 29°49' E 031°06'2 4.5
2017-Dec-14 17:30S 29°49' E 031°08'3 5.7
2017-Dec-14 17:00S 29°52' E 031°08'2 4.6
2017-Dec-14 16:30S 29°50' E 031°07'510.0
2017-Dec-14 16:00S 29°48' E 031°13'8 8.4
2017-Dec-14 15:00S 29°41' E 031°19'1 2.5
2017-Dec-14 14:30S 29°40' E 031°18'5 9.0
2017-Dec-14 14:00S 29°44' E 031°15'5 9.1
2017-Dec-14 13:30S 29°47' E 031°12'4 8.4
2017-Dec-14 13:00S 29°51' E 031°10'3 6.1
2017-Dec-14 12:30S 29°48' E 031°11'4 8.6
2017-Dec-14 12:00S 29°45' E 031°14'5 9.2
2017-Dec-14 11:30S 29°41' E 031°17'4 9.0
2017-Dec-14 11:00S 29°38' E 031°20'5 9.2
2017-Dec-14 10:30S 29°35' E 031°25'5 9.2
2017-Dec-14 10:00S 29°32' E 031°29'5 9.1
2017-Dec-14 09:30S 29°29' E 031°33'5 9.0
2017-Dec-14 09:00S 29°27' E 031°37'5 9.4
2017-Dec-14 08:30S 29°24' E 031°42'5 9.9
2017-Dec-14 08:00S 29°22' E 031°47'5 9.9
2017-Dec-14 07:30S 29°19' E 031°51'  
2017-Dec-11 16:17S 29°19' E 031°53'311.2
2017-Dec-11 16:00S 29°21' E 031°51'612.1
2017-Dec-11 15:30S 29°25' E 031°46'613.0
2017-Dec-11 15:01S 29°30' E 031°41'713.6
2017-Dec-11 14:31S 29°35' E 031°35'713.7
2017-Dec-11 14:01S 29°39' E 031°30'713.4
2017-Dec-11 13:31S 29°44' E 031°24'713.5
2017-Dec-11 13:01S 29°48' E 031°18'713.7
2017-Dec-11 12:30S 29°51' E 031°10'612.6
2017-Dec-11 12:00S 29°52' E 031°03'1 1.3
2017-Dec-11 11:30S 29°52' E 031°03'0 0.0
2017-Dec-11 11:00S 29°52' E 031°03'0 0.0
2017-Dec-11 10:30S 29°52' E 031°03'0 0.0
2017-Dec-11 10:00S 29°52' E 031°03'0 0.0
2017-Dec-11 09:30S 29°52' E 031°03'0 0.0
2017-Dec-11 09:00S 29°52' E 031°03'0 0.0
2017-Dec-11 08:30S 29°52' E 031°03'0 0.0
2017-Dec-11 08:00S 29°52' E 031°03'0 0.0
2017-Dec-11 07:30S 29°52' E 031°03'0 0.0
2017-Dec-11 07:00S 29°52' E 031°03'0 0.0
2017-Dec-11 06:30S 29°52' E 031°03'0 0.0
2017-Dec-11 06:00S 29°52' E 031°03'0 0.0
2017-Dec-11 05:30S 29°52' E 031°03'0 0.0
2017-Dec-11 05:00S 29°52' E 031°03'0 0.0
2017-Dec-11 04:30S 29°52' E 031°03'0 0.0
2017-Dec-11 04:00S 29°52' E 031°03'0 0.0
2017-Dec-11 03:30S 29°52' E 031°03'0 0.0
2017-Dec-11 03:00S 29°52' E 031°03'0 0.0
2017-Dec-11 02:30S 29°52' E 031°03'0 0.0
2017-Dec-11 02:00S 29°52' E 031°03'0 0.0
2017-Dec-11 01:27S 29°52' E 031°03'0 0.0
2017-Dec-11 01:00S 29°52' E 031°03'0 0.0
2017-Dec-11 00:30S 29°52' E 031°03'0 0.0
2017-Dec-11 00:00S 29°52' E 031°03'0 0.0
2017-Dec-10 23:30S 29°52' E 031°03'0 0.0
2017-Dec-10 23:00S 29°52' E 031°03'0 0.0
2017-Dec-10 22:30S 29°52' E 031°03'0 0.0
2017-Dec-10 22:00S 29°52' E 031°03'0 0.0
2017-Dec-10 21:30S 29°52' E 031°03'0 0.0
2017-Dec-10 20:57S 29°52' E 031°03'0 0.0
2017-Dec-10 20:30S 29°52' E 031°03'0 0.0
2017-Dec-10 20:00S 29°52' E 031°03'0 0.0
2017-Dec-10 19:30S 29°52' E 031°03'0 0.0
2017-Dec-10 19:00S 29°52' E 031°03'0 0.0
2017-Dec-10 18:30S 29°52' E 031°03'0 0.0
2017-Dec-10 18:00S 29°52' E 031°03'0 0.0
2017-Dec-10 17:30S 29°52' E 031°03'0 0.0
2017-Dec-10 17:00S 29°52' E 031°03'0 0.0
2017-Dec-10 16:30S 29°52' E 031°03'0 0.0
2017-Dec-10 16:00S 29°52' E 031°03'0 0.0
2017-Dec-10 15:30S 29°52' E 031°03'0 0.0
2017-Dec-10 15:00S 29°52' E 031°03'0 0.0
2017-Dec-10 14:30S 29°52' E 031°03'0 0.0
2017-Dec-10 14:00S 29°52' E 031°03'0 0.0
2017-Dec-10 13:30S 29°52' E 031°03'0 0.0
2017-Dec-10 13:00S 29°52' E 031°03'0 0.0
2017-Dec-10 12:30S 29°52' E 031°03'0 0.0
2017-Dec-10 12:00S 29°52' E 031°03'0 0.0
2017-Dec-10 11:27S 29°52' E 031°03'0 0.0
2017-Dec-10 11:00S 29°52' E 031°03'0 0.0
2017-Dec-10 10:27S 29°52' E 031°03'0 0.0
2017-Dec-10 10:00S 29°52' E 031°03'0 0.0
2017-Dec-10 09:30S 29°52' E 031°03'0 0.5
2017-Dec-10 09:00S 29°52' E 031°02'0 0.2
2017-Dec-10 08:30S 29°52' E 031°02'0 0.0
2017-Dec-10 07:57S 29°52' E 031°02'0 0.0
2017-Dec-10 07:30S 29°52' E 031°02'0 0.0
2017-Dec-10 07:00S 29°52' E 031°02'0 0.0
2017-Dec-10 06:30S 29°52' E 031°02'0 0.0
2017-Dec-10 06:00S 29°52' E 031°02'0 0.0
2017-Dec-10 05:30S 29°52' E 031°02'0 0.0
2017-Dec-10 05:00S 29°52' E 031°02'0 0.0
2017-Dec-10 04:30S 29°52' E 031°02'0 0.0
2017-Dec-10 04:00S 29°52' E 031°02'0 0.0
2017-Dec-10 03:30S 29°52' E 031°02'0 0.0
2017-Dec-10 03:00S 29°52' E 031°02'0 0.0
2017-Dec-10 02:30S 29°52' E 031°02'0 0.0
2017-Dec-10 02:00S 29°52' E 031°02'0 0.0
2017-Dec-10 01:30S 29°52' E 031°02'0 0.0
2017-Dec-10 01:00S 29°52' E 031°02'0 0.0
2017-Dec-10 00:30S 29°52' E 031°02'0 0.0
2017-Dec-10 00:00S 29°52' E 031°02'0 0.0
2017-Dec-09 23:27S 29°52' E 031°02'0 0.0
2017-Dec-09 23:00S 29°52' E 031°02'0 0.0
2017-Dec-09 22:30S 29°52' E 031°02'0 0.0
2017-Dec-09 21:57S 29°52' E 031°02'0 0.0
2017-Dec-09 21:30S 29°52' E 031°02'0 0.0
2017-Dec-09 21:00S 29°52' E 031°02'0 0.0
2017-Dec-09 20:30S 29°52' E 031°02'0 0.0
2017-Dec-09 19:57S 29°52' E 031°02'0 0.0
2017-Dec-09 19:30S 29°52' E 031°02'0 0.0
2017-Dec-09 18:57S 29°52' E 031°02'0 0.0
2017-Dec-09 18:30S 29°52' E 031°02'0 0.0
2017-Dec-09 18:00S 29°52' E 031°02'0 0.0
2017-Dec-09 17:30S 29°52' E 031°02'0 0.0
2017-Dec-09 17:00S 29°52' E 031°02'0 0.0
2017-Dec-09 16:30S 29°52' E 031°02'0 0.0
2017-Dec-09 16:00S 29°52' E 031°02'0 0.0
2017-Dec-09 15:30S 29°52' E 031°02'0 0.0
2017-Dec-09 14:57S 29°52' E 031°02'0 0.0
2017-Dec-09 14:30S 29°52' E 031°02'0 0.0
2017-Dec-09 13:57S 29°52' E 031°02'0 0.0
2017-Dec-09 13:30S 29°52' E 031°02'0 0.0
2017-Dec-09 13:00S 29°52' E 031°02'0 0.0
2017-Dec-09 12:30S 29°52' E 031°02'0 0.0
2017-Dec-09 11:57S 29°52' E 031°02'0 0.0
2017-Dec-09 11:27S 29°52' E 031°02'0 0.0
2017-Dec-09 11:00S 29°52' E 031°02'0 0.0
2017-Dec-09 10:30S 29°52' E 031°02'0 0.0
2017-Dec-09 10:00S 29°52' E 031°02'0 0.0
2017-Dec-09 09:30S 29°52' E 031°02'0 0.0
2017-Dec-09 09:00S 29°52' E 031°02'0 0.0
2017-Dec-09 08:30S 29°52' E 031°02'0 0.0
2017-Dec-09 07:57S 29°52' E 031°02'0 0.0
2017-Dec-09 07:30S 29°52' E 031°02'0 0.0
2017-Dec-09 07:00S 29°52' E 031°02'0 0.0
2017-Dec-09 06:30S 29°52' E 031°02'0 0.0
2017-Dec-09 05:57S 29°52' E 031°02'0 0.0
2017-Dec-09 05:30S 29°52' E 031°02'0 0.0
2017-Dec-09 05:00S 29°52' E 031°02'0 0.0
2017-Dec-09 04:30S 29°52' E 031°02'0 0.0
2017-Dec-09 04:00S 29°52' E 031°02'0 0.0
2017-Dec-09 03:30S 29°52' E 031°02'0 0.0
2017-Dec-09 03:00S 29°52' E 031°02'0 0.0
2017-Dec-09 02:30S 29°52' E 031°02'0 0.0
2017-Dec-09 02:00S 29°52' E 031°02'0 0.0
2017-Dec-09 01:27S 29°52' E 031°02'0 0.0
2017-Dec-09 01:00S 29°52' E 031°02'0 0.0
2017-Dec-09 00:30S 29°52' E 031°02'0 0.0
2017-Dec-09 00:00S 29°52' E 031°02'0 0.0
2017-Dec-08 23:30S 29°52' E 031°02'0 0.0
2017-Dec-08 23:00S 29°52' E 031°02'0 0.0
2017-Dec-08 22:30S 29°52' E 031°02'0 0.0
2017-Dec-08 22:00S 29°52' E 031°02'0 0.0
2017-Dec-08 21:27S 29°52' E 031°02'0 0.0
2017-Dec-08 21:00S 29°52' E 031°02'0 0.0
2017-Dec-08 20:30S 29°52' E 031°02'0 0.0
2017-Dec-08 20:00S 29°52' E 031°02'0 0.0
2017-Dec-08 19:30S 29°52' E 031°02'0 0.0
2017-Dec-08 19:00S 29°52' E 031°02'0 0.0
2017-Dec-08 18:30S 29°52' E 031°02'0 0.0
2017-Dec-08 18:00S 29°52' E 031°02'0 0.0
2017-Dec-08 17:30S 29°52' E 031°02'0 0.0
2017-Dec-08 16:54S 29°52' E 031°02'0 0.0
2017-Dec-08 16:30S 29°52' E 031°02'0 0.0
2017-Dec-08 16:00S 29°52' E 031°02'0 0.0
2017-Dec-08 15:30S 29°52' E 031°02'0 0.0
2017-Dec-08 15:00S 29°52' E 031°02'0 0.0
2017-Dec-08 14:30S 29°52' E 031°02'0 0.0
2017-Dec-08 14:00S 29°52' E 031°02'0 0.0
2017-Dec-08 13:27S 29°52' E 031°02'0 0.0
2017-Dec-08 13:00S 29°52' E 031°02'0 0.0
2017-Dec-08 12:30S 29°52' E 031°02'0 0.0
2017-Dec-08 12:00S 29°52' E 031°02'0 0.0
2017-Dec-08 11:30S 29°52' E 031°02'0 0.0
2017-Dec-08 10:57S 29°52' E 031°02'0 0.0
2017-Dec-08 10:30S 29°52' E 031°02'0 0.0
2017-Dec-08 10:00S 29°52' E 031°02'0 0.0
2017-Dec-08 09:30S 29°52' E 031°02'0 0.0
2017-Dec-08 09:00S 29°52' E 031°02'0 0.0
2017-Dec-08 08:30S 29°52' E 031°02'0 0.0
2017-Dec-08 07:57S 29°52' E 031°02'0 0.0
2017-Dec-08 07:30S 29°52' E 031°02'0 0.0
2017-Dec-08 06:57S 29°52' E 031°02'0 0.0
2017-Dec-08 06:30S 29°52' E 031°02'0 0.0
2017-Dec-08 05:57S 29°52' E 031°02'0 0.0
2017-Dec-08 05:30S 29°52' E 031°02'0 0.0
2017-Dec-08 05:00S 29°52' E 031°02'0 0.0
2017-Dec-08 04:30S 29°52' E 031°02'0 0.0
2017-Dec-08 04:00S 29°52' E 031°02'0 0.0
2017-Dec-08 03:30S 29°52' E 031°02'0 0.0
2017-Dec-08 03:00S 29°52' E 031°02'0 0.0
2017-Dec-08 02:30S 29°52' E 031°02'0 0.0
2017-Dec-08 02:00S 29°52' E 031°02'0 0.0
2017-Dec-08 01:30S 29°52' E 031°02'0 0.0
2017-Dec-08 01:00S 29°52' E 031°02'0 0.0
2017-Dec-08 00:30S 29°52' E 031°02'0 0.0
2017-Dec-08 00:00S 29°52' E 031°02'0 0.0
2017-Dec-07 23:30S 29°52' E 031°02'0 0.0
2017-Dec-07 23:00S 29°52' E 031°02'0 0.0
2017-Dec-07 22:30S 29°52' E 031°02'0 0.0
2017-Dec-07 22:00S 29°52' E 031°02'0 0.0
2017-Dec-07 21:30S 29°52' E 031°02'0 0.0
2017-Dec-07 21:00S 29°52' E 031°02'0 0.0
2017-Dec-07 20:30S 29°52' E 031°02'0 0.0
2017-Dec-07 20:00S 29°52' E 031°02'0 0.0
2017-Dec-07 19:30S 29°52' E 031°02'0 0.0
2017-Dec-07 19:00S 29°52' E 031°02'0 0.0
2017-Dec-07 18:30S 29°52' E 031°02'0 0.0
2017-Dec-07 18:00S 29°52' E 031°02'0 0.0
2017-Dec-07 17:30S 29°52' E 031°02'0 0.0
2017-Dec-07 17:00S 29°52' E 031°02'0 0.0
2017-Dec-07 16:30S 29°52' E 031°02'0 0.0
2017-Dec-07 16:00S 29°52' E 031°02'0 0.0
2017-Dec-07 15:30S 29°52' E 031°02'0 0.0
2017-Dec-07 15:00S 29°52' E 031°02'0 0.0
2017-Dec-07 14:30S 29°52' E 031°02'0 0.0
2017-Dec-07 14:00S 29°52' E 031°02'0 0.0
2017-Dec-07 13:27S 29°52' E 031°02'0 0.0
2017-Dec-07 12:57S 29°52' E 031°02'0 0.0
2017-Dec-07 12:30S 29°52' E 031°02'0 0.0
2017-Dec-07 11:57S 29°52' E 031°02'0 0.0
2017-Dec-07 11:30S 29°52' E 031°02'0 0.0
2017-Dec-07 10:48S 29°52' E 031°02'0 0.0
2017-Dec-07 10:30S 29°52' E 031°02'0 0.0
2017-Dec-07 10:00S 29°52' E 031°02'0 0.0
2017-Dec-07 09:30S 29°52' E 031°02'0 0.0
2017-Dec-07 08:57S 29°52' E 031°02'0 0.0
2017-Dec-07 08:30S 29°52' E 031°02'0 0.0
2017-Dec-07 08:00S 29°52' E 031°02'0 0.0
2017-Dec-07 07:24S 29°52' E 031°02'0 0.0
2017-Dec-07 07:00S 29°52' E 031°02'0 0.0
2017-Dec-07 06:30S 29°52' E 031°02'0 0.0
2017-Dec-07 06:00S 29°52' E 031°02'0 0.0
2017-Dec-07 05:30S 29°52' E 031°02'0 0.0
2017-Dec-07 05:00S 29°52' E 031°02'0 0.0
2017-Dec-07 04:30S 29°52' E 031°02'0 0.0
2017-Dec-07 04:00S 29°52' E 031°02'0 0.0
2017-Dec-07 03:30S 29°52' E 031°02'0 0.0
2017-Dec-07 03:00S 29°52' E 031°02'0 0.0
2017-Dec-07 02:30S 29°52' E 031°02'0 0.0
2017-Dec-07 02:00S 29°52' E 031°02'0 0.0
2017-Dec-07 01:30S 29°52' E 031°02'0 0.0
2017-Dec-07 01:00S 29°52' E 031°02'0 0.0
2017-Dec-07 00:27S 29°52' E 031°02'0 0.0
2017-Dec-07 00:00S 29°52' E 031°02'0 0.0
2017-Dec-06 23:27S 29°52' E 031°02'0 0.0
2017-Dec-06 23:00S 29°52' E 031°02'0 0.0
2017-Dec-06 22:30S 29°52' E 031°02'0 0.0
2017-Dec-06 22:00S 29°52' E 031°02'0 0.0
2017-Dec-06 21:30S 29°52' E 031°02'0 0.0
2017-Dec-06 21:00S 29°52' E 031°02'  
Track history (hours):
 
Tides and Currents Weather Stations Pressure Air Temp Water Temp Dewpoint Dewpoint Depression Visibility Wind Speed Wind Dir Waves Ship Positions

M\v Black Rhino

Last reported at 2017-Dec-16 04:50 UTC. Time now 2017-Dec-18 16:55 UTC.
Position S 29°02' E 032°17'.

Length 101 m; draft 5 m.

Type: Cargo ship. MMSI: 538090408.

Date/timePositionNaut miles runAvg speedWind from/ knotsBaromVisibWave heightAir tempDewpointWater temp
2017-Dec-16 04:50S 29°02' E 032°17'19 9.7
2017-Dec-16 02:53S 29°14' E 032°00'4 9.8
2017-Dec-16 02:29S 29°16' E 031°57'511.1
2017-Dec-16 02:00S 29°19' E 031°52'611.5
2017-Dec-16 01:30S 29°23' E 031°47'611.8
2017-Dec-16 01:00S 29°27' E 031°41'612.0
2017-Dec-16 00:30S 29°31' E 031°36'612.2
2017-Dec-16 00:00S 29°35' E 031°31'612.2
2017-Dec-15 23:30S 29°39' E 031°26'612.5
2017-Dec-15 23:00S 29°43' E 031°21'612.7
2017-Dec-15 22:30S 29°47' E 031°15'613.0
2017-Dec-15 22:00S 29°50' E 031°08'510.1
2017-Dec-15 21:30S 29°53' E 031°03'1 1.4
2017-Dec-15 21:00S 29°53' E 031°02'0 0.6
2017-Dec-15 20:30S 29°52' E 031°02'0 0.0
2017-Dec-15 20:00S 29°52' E 031°02'0 0.0
2017-Dec-15 19:30S 29°52' E 031°02'0 0.0
2017-Dec-15 18:57S 29°52' E 031°02'0 0.0
2017-Dec-15 18:30S 29°52' E 031°02'0 0.0
2017-Dec-15 18:00S 29°52' E 031°02'0 0.0
2017-Dec-15 17:30S 29°52' E 031°02'0 0.0
2017-Dec-15 17:00S 29°52' E 031°02'0 0.0
2017-Dec-15 16:30S 29°52' E 031°02'0 0.0
2017-Dec-15 16:00S 29°52' E 031°02'0 0.0
2017-Dec-15 15:30S 29°52' E 031°02'0 0.0
2017-Dec-15 15:00S 29°52' E 031°02'0 0.0
2017-Dec-15 14:30S 29°52' E 031°02'0 0.0
2017-Dec-15 14:00S 29°52' E 031°02'0 0.0
2017-Dec-15 13:30S 29°52' E 031°02'0 0.0
2017-Dec-15 13:00S 29°52' E 031°02'0 0.0
2017-Dec-15 12:30S 29°52' E 031°02'0 0.0
2017-Dec-15 12:00S 29°52' E 031°02'0 0.0
2017-Dec-15 11:30S 29°52' E 031°02'0 0.0
2017-Dec-15 10:57S 29°52' E 031°02'0 0.0
2017-Dec-15 10:30S 29°52' E 031°02'0 0.0
2017-Dec-15 10:00S 29°52' E 031°02'0 0.0
2017-Dec-15 09:30S 29°52' E 031°02'0 0.0
2017-Dec-15 09:00S 29°52' E 031°02'0 0.0
2017-Dec-15 08:30S 29°52' E 031°02'0 0.0
2017-Dec-15 08:00S 29°52' E 031°02'0 0.0
2017-Dec-15 07:30S 29°52' E 031°02'0 0.0
2017-Dec-15 07:00S 29°52' E 031°02'0 0.0
2017-Dec-15 06:30S 29°52' E 031°02'0 0.0
2017-Dec-15 06:00S 29°52' E 031°02'0 0.0
2017-Dec-15 05:30S 29°52' E 031°02'0 0.0
2017-Dec-15 05:00S 29°52' E 031°02'0 0.0
2017-Dec-15 04:30S 29°52' E 031°02'0 0.0
2017-Dec-15 04:00S 29°52' E 031°02'0 0.0
2017-Dec-15 02:30S 29°52' E 031°02'0 0.0
2017-Dec-15 01:00S 29°52' E 031°02'0 0.0
2017-Dec-15 00:30S 29°52' E 031°02'0 0.1
2017-Dec-14 18:31S 29°53' E 031°03'4 8.4
2017-Dec-14 18:00S 29°49' E 031°06'2 4.5
2017-Dec-14 17:30S 29°49' E 031°08'3 5.7
2017-Dec-14 17:00S 29°52' E 031°08'2 4.6
2017-Dec-14 16:30S 29°50' E 031°07'510.0
2017-Dec-14 16:00S 29°48' E 031°13'8 8.4
2017-Dec-14 15:00S 29°41' E 031°19'1 2.5
2017-Dec-14 14:30S 29°40' E 031°18'5 9.0
2017-Dec-14 14:00S 29°44' E 031°15'5 9.1
2017-Dec-14 13:30S 29°47' E 031°12'4 8.4
2017-Dec-14 13:00S 29°51' E 031°10'3 6.1
2017-Dec-14 12:30S 29°48' E 031°11'4 8.6
2017-Dec-14 12:00S 29°45' E 031°14'5 9.2
2017-Dec-14 11:30S 29°41' E 031°17'4 9.0
2017-Dec-14 11:00S 29°38' E 031°20'5 9.2
2017-Dec-14 10:30S 29°35' E 031°25'5 9.2
2017-Dec-14 10:00S 29°32' E 031°29'5 9.1
2017-Dec-14 09:30S 29°29' E 031°33'5 9.0
2017-Dec-14 09:00S 29°27' E 031°37'5 9.4
2017-Dec-14 08:30S 29°24' E 031°42'5 9.9
2017-Dec-14 08:00S 29°22' E 031°47'5 9.9
2017-Dec-14 07:30S 29°19' E 031°51'  
2017-Dec-11 16:17S 29°19' E 031°53'311.2
2017-Dec-11 16:00S 29°21' E 031°51'612.1
2017-Dec-11 15:30S 29°25' E 031°46'613.0
2017-Dec-11 15:01S 29°30' E 031°41'713.6
2017-Dec-11 14:31S 29°35' E 031°35'713.7
2017-Dec-11 14:01S 29°39' E 031°30'713.4
2017-Dec-11 13:31S 29°44' E 031°24'713.5
2017-Dec-11 13:01S 29°48' E 031°18'713.7
2017-Dec-11 12:30S 29°51' E 031°10'612.6
2017-Dec-11 12:00S 29°52' E 031°03'1 1.3
2017-Dec-11 11:30S 29°52' E 031°03'0 0.0
2017-Dec-11 11:00S 29°52' E 031°03'0 0.0
2017-Dec-11 10:30S 29°52' E 031°03'0 0.0
2017-Dec-11 10:00S 29°52' E 031°03'0 0.0
2017-Dec-11 09:30S 29°52' E 031°03'0 0.0
2017-Dec-11 09:00S 29°52' E 031°03'0 0.0
2017-Dec-11 08:30S 29°52' E 031°03'0 0.0
2017-Dec-11 08:00S 29°52' E 031°03'0 0.0
2017-Dec-11 07:30S 29°52' E 031°03'0 0.0
2017-Dec-11 07:00S 29°52' E 031°03'0 0.0
2017-Dec-11 06:30S 29°52' E 031°03'0 0.0
2017-Dec-11 06:00S 29°52' E 031°03'0 0.0
2017-Dec-11 05:30S 29°52' E 031°03'0 0.0
2017-Dec-11 05:00S 29°52' E 031°03'0 0.0
2017-Dec-11 04:30S 29°52' E 031°03'0 0.0
2017-Dec-11 04:00S 29°52' E 031°03'0 0.0
2017-Dec-11 03:30S 29°52' E 031°03'0 0.0
2017-Dec-11 03:00S 29°52' E 031°03'0 0.0
2017-Dec-11 02:30S 29°52' E 031°03'0 0.0
2017-Dec-11 02:00S 29°52' E 031°03'0 0.0
2017-Dec-11 01:27S 29°52' E 031°03'0 0.0
2017-Dec-11 01:00S 29°52' E 031°03'0 0.0
2017-Dec-11 00:30S 29°52' E 031°03'0 0.0
2017-Dec-11 00:00S 29°52' E 031°03'0 0.0
2017-Dec-10 23:30S 29°52' E 031°03'0 0.0
2017-Dec-10 23:00S 29°52' E 031°03'0 0.0
2017-Dec-10 22:30S 29°52' E 031°03'0 0.0
2017-Dec-10 22:00S 29°52' E 031°03'0 0.0
2017-Dec-10 21:30S 29°52' E 031°03'0 0.0
2017-Dec-10 20:57S 29°52' E 031°03'0 0.0
2017-Dec-10 20:30S 29°52' E 031°03'0 0.0
2017-Dec-10 20:00S 29°52' E 031°03'0 0.0
2017-Dec-10 19:30S 29°52' E 031°03'0 0.0
2017-Dec-10 19:00S 29°52' E 031°03'0 0.0
2017-Dec-10 18:30S 29°52' E 031°03'0 0.0
2017-Dec-10 18:00S 29°52' E 031°03'0 0.0
2017-Dec-10 17:30S 29°52' E 031°03'0 0.0
2017-Dec-10 17:00S 29°52' E 031°03'0 0.0
2017-Dec-10 16:30S 29°52' E 031°03'0 0.0
2017-Dec-10 16:00S 29°52' E 031°03'0 0.0
2017-Dec-10 15:30S 29°52' E 031°03'0 0.0
2017-Dec-10 15:00S 29°52' E 031°03'0 0.0
2017-Dec-10 14:30S 29°52' E 031°03'0 0.0
2017-Dec-10 14:00S 29°52' E 031°03'0 0.0
2017-Dec-10 13:30S 29°52' E 031°03'0 0.0
2017-Dec-10 13:00S 29°52' E 031°03'0 0.0
2017-Dec-10 12:30S 29°52' E 031°03'0 0.0
2017-Dec-10 12:00S 29°52' E 031°03'0 0.0
2017-Dec-10 11:27S 29°52' E 031°03'0 0.0
2017-Dec-10 11:00S 29°52' E 031°03'0 0.0
2017-Dec-10 10:27S 29°52' E 031°03'0 0.0
2017-Dec-10 10:00S 29°52' E 031°03'0 0.0
2017-Dec-10 09:30S 29°52' E 031°03'0 0.5
2017-Dec-10 09:00S 29°52' E 031°02'0 0.2
2017-Dec-10 08:30S 29°52' E 031°02'0 0.0
2017-Dec-10 07:57S 29°52' E 031°02'0 0.0
2017-Dec-10 07:30S 29°52' E 031°02'0 0.0
2017-Dec-10 07:00S 29°52' E 031°02'0 0.0
2017-Dec-10 06:30S 29°52' E 031°02'0 0.0
2017-Dec-10 06:00S 29°52' E 031°02'0 0.0
2017-Dec-10 05:30S 29°52' E 031°02'0 0.0
2017-Dec-10 05:00S 29°52' E 031°02'0 0.0
2017-Dec-10 04:30S 29°52' E 031°02'0 0.0
2017-Dec-10 04:00S 29°52' E 031°02'0 0.0
2017-Dec-10 03:30S 29°52' E 031°02'0 0.0
2017-Dec-10 03:00S 29°52' E 031°02'0 0.0
2017-Dec-10 02:30S 29°52' E 031°02'0 0.0
2017-Dec-10 02:00S 29°52' E 031°02'0 0.0
2017-Dec-10 01:30S 29°52' E 031°02'0 0.0
2017-Dec-10 01:00S 29°52' E 031°02'0 0.0
2017-Dec-10 00:30S 29°52' E 031°02'0 0.0
2017-Dec-10 00:00S 29°52' E 031°02'0 0.0
2017-Dec-09 23:27S 29°52' E 031°02'0 0.0
2017-Dec-09 23:00S 29°52' E 031°02'0 0.0
2017-Dec-09 22:30S 29°52' E 031°02'0 0.0
2017-Dec-09 21:57S 29°52' E 031°02'0 0.0
2017-Dec-09 21:30S 29°52' E 031°02'0 0.0
2017-Dec-09 21:00S 29°52' E 031°02'0 0.0
2017-Dec-09 20:30S 29°52' E 031°02'0 0.0
2017-Dec-09 19:57S 29°52' E 031°02'0 0.0
2017-Dec-09 19:30S 29°52' E 031°02'0 0.0
2017-Dec-09 18:57S 29°52' E 031°02'0 0.0
2017-Dec-09 18:30S 29°52' E 031°02'0 0.0
2017-Dec-09 18:00S 29°52' E 031°02'0 0.0
2017-Dec-09 17:30S 29°52' E 031°02'0 0.0
2017-Dec-09 17:00S 29°52' E 031°02'0 0.0
2017-Dec-09 16:30S 29°52' E 031°02'0 0.0
2017-Dec-09 16:00S 29°52' E 031°02'0 0.0
2017-Dec-09 15:30S 29°52' E 031°02'0 0.0
2017-Dec-09 14:57S 29°52' E 031°02'0 0.0
2017-Dec-09 14:30S 29°52' E 031°02'0 0.0
2017-Dec-09 13:57S 29°52' E 031°02'0 0.0
2017-Dec-09 13:30S 29°52' E 031°02'0 0.0
2017-Dec-09 13:00S 29°52' E 031°02'0 0.0
2017-Dec-09 12:30S 29°52' E 031°02'0 0.0
2017-Dec-09 11:57S 29°52' E 031°02'0 0.0
2017-Dec-09 11:27S 29°52' E 031°02'0 0.0
2017-Dec-09 11:00S 29°52' E 031°02'0 0.0
2017-Dec-09 10:30S 29°52' E 031°02'0 0.0
2017-Dec-09 10:00S 29°52' E 031°02'0 0.0
2017-Dec-09 09:30S 29°52' E 031°02'0 0.0
2017-Dec-09 09:00S 29°52' E 031°02'0 0.0
2017-Dec-09 08:30S 29°52' E 031°02'0 0.0
2017-Dec-09 07:57S 29°52' E 031°02'0 0.0
2017-Dec-09 07:30S 29°52' E 031°02'0 0.0
2017-Dec-09 07:00S 29°52' E 031°02'0 0.0
2017-Dec-09 06:30S 29°52' E 031°02'0 0.0
2017-Dec-09 05:57S 29°52' E 031°02'0 0.0
2017-Dec-09 05:30S 29°52' E 031°02'0 0.0
2017-Dec-09 05:00S 29°52' E 031°02'0 0.0
2017-Dec-09 04:30S 29°52' E 031°02'0 0.0
2017-Dec-09 04:00S 29°52' E 031°02'0 0.0
2017-Dec-09 03:30S 29°52' E 031°02'0 0.0
2017-Dec-09 03:00S 29°52' E 031°02'0 0.0
2017-Dec-09 02:30S 29°52' E 031°02'0 0.0
2017-Dec-09 02:00S 29°52' E 031°02'0 0.0
2017-Dec-09 01:27S 29°52' E 031°02'0 0.0
2017-Dec-09 01:00S 29°52' E 031°02'0 0.0
2017-Dec-09 00:30S 29°52' E 031°02'0 0.0
2017-Dec-09 00:00S 29°52' E 031°02'0 0.0
2017-Dec-08 23:30S 29°52' E 031°02'0 0.0
2017-Dec-08 23:00S 29°52' E 031°02'0 0.0
2017-Dec-08 22:30S 29°52' E 031°02'0 0.0
2017-Dec-08 22:00S 29°52' E 031°02'0 0.0
2017-Dec-08 21:27S 29°52' E 031°02'0 0.0
2017-Dec-08 21:00S 29°52' E 031°02'0 0.0
2017-Dec-08 20:30S 29°52' E 031°02'0 0.0
2017-Dec-08 20:00S 29°52' E 031°02'0 0.0
2017-Dec-08 19:30S 29°52' E 031°02'0 0.0
2017-Dec-08 19:00S 29°52' E 031°02'0 0.0
2017-Dec-08 18:30S 29°52' E 031°02'0 0.0
2017-Dec-08 18:00S 29°52' E 031°02'0 0.0
2017-Dec-08 17:30S 29°52' E 031°02'0 0.0
2017-Dec-08 16:54S 29°52' E 031°02'0 0.0
2017-Dec-08 16:30S 29°52' E 031°02'0 0.0
2017-Dec-08 16:00S 29°52' E 031°02'0 0.0
2017-Dec-08 15:30S 29°52' E 031°02'0 0.0
2017-Dec-08 15:00S 29°52' E 031°02'0 0.0
2017-Dec-08 14:30S 29°52' E 031°02'0 0.0
2017-Dec-08 14:00S 29°52' E 031°02'0 0.0
2017-Dec-08 13:27S 29°52' E 031°02'0 0.0
2017-Dec-08 13:00S 29°52' E 031°02'0 0.0
2017-Dec-08 12:30S 29°52' E 031°02'0 0.0
2017-Dec-08 12:00S 29°52' E 031°02'0 0.0
2017-Dec-08 11:30S 29°52' E 031°02'0 0.0
2017-Dec-08 10:57S 29°52' E 031°02'0 0.0
2017-Dec-08 10:30S 29°52' E 031°02'0 0.0
2017-Dec-08 10:00S 29°52' E 031°02'0 0.0
2017-Dec-08 09:30S 29°52' E 031°02'0 0.0
2017-Dec-08 09:00S 29°52' E 031°02'0 0.0
2017-Dec-08 08:30S 29°52' E 031°02'0 0.0
2017-Dec-08 07:57S 29°52' E 031°02'0 0.0
2017-Dec-08 07:30S 29°52' E 031°02'0 0.0
2017-Dec-08 06:57S 29°52' E 031°02'0 0.0
2017-Dec-08 06:30S 29°52' E 031°02'0 0.0
2017-Dec-08 05:57S 29°52' E 031°02'0 0.0
2017-Dec-08 05:30S 29°52' E 031°02'0 0.0
2017-Dec-08 05:00S 29°52' E 031°02'0 0.0
2017-Dec-08 04:30S 29°52' E 031°02'0 0.0
2017-Dec-08 04:00S 29°52' E 031°02'0 0.0
2017-Dec-08 03:30S 29°52' E 031°02'0 0.0
2017-Dec-08 03:00S 29°52' E 031°02'0 0.0
2017-Dec-08 02:30S 29°52' E 031°02'0 0.0
2017-Dec-08 02:00S 29°52' E 031°02'0 0.0
2017-Dec-08 01:30S 29°52' E 031°02'0 0.0
2017-Dec-08 01:00S 29°52' E 031°02'0 0.0
2017-Dec-08 00:30S 29°52' E 031°02'0 0.0
2017-Dec-08 00:00S 29°52' E 031°02'0 0.0
2017-Dec-07 23:30S 29°52' E 031°02'0 0.0
2017-Dec-07 23:00S 29°52' E 031°02'0 0.0
2017-Dec-07 22:30S 29°52' E 031°02'0 0.0
2017-Dec-07 22:00S 29°52' E 031°02'0 0.0
2017-Dec-07 21:30S 29°52' E 031°02'0 0.0
2017-Dec-07 21:00S 29°52' E 031°02'0 0.0
2017-Dec-07 20:30S 29°52' E 031°02'0 0.0
2017-Dec-07 20:00S 29°52' E 031°02'0 0.0
2017-Dec-07 19:30S 29°52' E 031°02'0 0.0
2017-Dec-07 19:00S 29°52' E 031°02'0 0.0
2017-Dec-07 18:30S 29°52' E 031°02'0 0.0
2017-Dec-07 18:00S 29°52' E 031°02'0 0.0
2017-Dec-07 17:30S 29°52' E 031°02'0 0.0
2017-Dec-07 17:00S 29°52' E 031°02'0 0.0
2017-Dec-07 16:30S 29°52' E 031°02'0 0.0
2017-Dec-07 16:00S 29°52' E 031°02'0 0.0
2017-Dec-07 15:30S 29°52' E 031°02'0 0.0
2017-Dec-07 15:00S 29°52' E 031°02'0 0.0
2017-Dec-07 14:30S 29°52' E 031°02'0 0.0
2017-Dec-07 14:00S 29°52' E 031°02'0 0.0
2017-Dec-07 13:27S 29°52' E 031°02'0 0.0
2017-Dec-07 12:57S 29°52' E 031°02'0 0.0
2017-Dec-07 12:30S 29°52' E 031°02'0 0.0
2017-Dec-07 11:57S 29°52' E 031°02'0 0.0
2017-Dec-07 11:30S 29°52' E 031°02'0 0.0
2017-Dec-07 10:48S 29°52' E 031°02'0 0.0
2017-Dec-07 10:30S 29°52' E 031°02'0 0.0
2017-Dec-07 10:00S 29°52' E 031°02'0 0.0
2017-Dec-07 09:30S 29°52' E 031°02'0 0.0
2017-Dec-07 08:57S 29°52' E 031°02'0 0.0
2017-Dec-07 08:30S 29°52' E 031°02'0 0.0
2017-Dec-07 08:00S 29°52' E 031°02'0 0.0
2017-Dec-07 07:24S 29°52' E 031°02'0 0.0
2017-Dec-07 07:00S 29°52' E 031°02'0 0.0
2017-Dec-07 06:30S 29°52' E 031°02'0 0.0
2017-Dec-07 06:00S 29°52' E 031°02'0 0.0
2017-Dec-07 05:30S 29°52' E 031°02'0 0.0
2017-Dec-07 05:00S 29°52' E 031°02'0 0.0
2017-Dec-07 04:30S 29°52' E 031°02'0 0.0
2017-Dec-07 04:00S 29°52' E 031°02'0 0.0
2017-Dec-07 03:30S 29°52' E 031°02'0 0.0
2017-Dec-07 03:00S 29°52' E 031°02'0 0.0
2017-Dec-07 02:30S 29°52' E 031°02'0 0.0
2017-Dec-07 02:00S 29°52' E 031°02'0 0.0
2017-Dec-07 01:30S 29°52' E 031°02'0 0.0
2017-Dec-07 01:00S 29°52' E 031°02'0 0.0
2017-Dec-07 00:27S 29°52' E 031°02'0 0.0
2017-Dec-07 00:00S 29°52' E 031°02'0 0.0
2017-Dec-06 23:27S 29°52' E 031°02'0 0.0
2017-Dec-06 23:00S 29°52' E 031°02'0 0.0
2017-Dec-06 22:30S 29°52' E 031°02'0 0.0
2017-Dec-06 22:00S 29°52' E 031°02'0 0.0
2017-Dec-06 21:30S 29°52' E 031°02'0 0.0
2017-Dec-06 21:00S 29°52' E 031°02'  

Dump ship's entire track history